Benjamas Naree — 9V9405 — position and weather

sailwx.info

Track history (hours):
 
Tides and Currents Weather Stations Pressure Air Temp Water Temp Dewpoint Dewpoint Depression Visibility Wind Speed Wind Dir Waves Ship Positions

Benjamas Naree

Last reported at 2014-Oct-14 16:30 UTC. Time now 2014-Oct-23 08:55 UTC.
Position N 34°58' E 139°40'.
Warning: this ship's position is 8 days out of date.

Length 181 m; draft 8.3 m.

Type: Cargo ship. MMSI: 566377000.

Date/timePositionNaut miles runAvg speedWind from/ knotsBaromVisibWave heightAir tempDewpointWater temp
2014-Oct-14 16:30N 34°58' E 139°40'1314.0
2014-Oct-14 15:33N 35°11' E 139°46'1212.3
2014-Oct-14 14:33N 35°23' E 139°42'1413.7
2014-Oct-14 13:32N 35°31' E 139°56'4 0.5
2014-Oct-14 06:21N 35°34' E 139°60'0 0.1
2014-Oct-14 05:24N 35°34' E 139°60'0 0.0
2014-Oct-14 03:24N 35°34' E 139°60'0 0.0
2014-Oct-14 02:28N 35°34' E 139°60'0 0.0
2014-Oct-14 00:20N 35°34' E 139°60'0 0.0
2014-Oct-12 20:29N 35°34' E 139°59'0 0.0
2014-Oct-12 17:14N 35°34' E 139°59'0 0.0
2014-Oct-12 16:11N 35°34' E 139°59'0 0.0
2014-Oct-12 14:29N 35°34' E 139°59'0 0.0
2014-Oct-12 03:17N 35°34' E 139°60'5 7.4
2014-Oct-12 02:33N 35°39' E 139°59'1 0.0
2014-Oct-10 10:17N 35°40' E 140°00'0 0.0
2014-Oct-10 09:29N 35°40' E 140°00'0 0.0
2014-Oct-10 04:29N 35°40' E 140°00'0 0.0
2014-Oct-10 03:29N 35°40' E 140°00'0 0.0
2014-Oct-10 01:32N 35°40' E 140°00'0 0.0
2014-Oct-09 19:14N 35°40' E 140°00'0 0.0
2014-Oct-09 18:32N 35°40' E 140°00'0 0.0
2014-Oct-09 17:32N 35°40' E 140°00'0 0.0
2014-Oct-09 16:26N 35°40' E 140°00'0 0.0
2014-Oct-08 21:11N 35°40' E 140°00'0 0.0
2014-Oct-08 19:29N 35°40' E 140°00'0 0.0
2014-Oct-08 15:11N 35°40' E 139°60'0 0.1
2014-Oct-08 14:29N 35°40' E 140°00'0 0.0
2014-Oct-08 12:17N 35°40' E 140°00'0 0.0
2014-Oct-07 21:17N 35°40' E 140°00'0 0.0
2014-Oct-07 18:05N 35°40' E 140°00'0 0.0
2014-Oct-07 17:32N 35°40' E 140°00'0 0.0
2014-Oct-07 01:11N 35°40' E 140°00'0 0.1
2014-Oct-06 23:04N 35°40' E 139°60'5 0.2
2014-Oct-06 00:29N 35°35' E 139°60'  
Track history (hours):
 
Tides and Currents Weather Stations Pressure Air Temp Water Temp Dewpoint Dewpoint Depression Visibility Wind Speed Wind Dir Waves Ship Positions

Benjamas Naree

Last reported at 2014-Oct-14 16:30 UTC. Time now 2014-Oct-23 08:55 UTC.
Position N 34°58' E 139°40'.
Warning: this ship's position is 8 days out of date.

Length 181 m; draft 8.3 m.

Type: Cargo ship. MMSI: 566377000.

Date/timePositionNaut miles runAvg speedWind from/ knotsBaromVisibWave heightAir tempDewpointWater temp
2014-Oct-14 16:30N 34°58' E 139°40'1314.0
2014-Oct-14 15:33N 35°11' E 139°46'1212.3
2014-Oct-14 14:33N 35°23' E 139°42'1413.7
2014-Oct-14 13:32N 35°31' E 139°56'4 0.5
2014-Oct-14 06:21N 35°34' E 139°60'0 0.1
2014-Oct-14 05:24N 35°34' E 139°60'0 0.0
2014-Oct-14 03:24N 35°34' E 139°60'0 0.0
2014-Oct-14 02:28N 35°34' E 139°60'0 0.0
2014-Oct-14 00:20N 35°34' E 139°60'0 0.0
2014-Oct-12 20:29N 35°34' E 139°59'0 0.0
2014-Oct-12 17:14N 35°34' E 139°59'0 0.0
2014-Oct-12 16:11N 35°34' E 139°59'0 0.0
2014-Oct-12 14:29N 35°34' E 139°59'0 0.0
2014-Oct-12 03:17N 35°34' E 139°60'5 7.4
2014-Oct-12 02:33N 35°39' E 139°59'1 0.0
2014-Oct-10 10:17N 35°40' E 140°00'0 0.0
2014-Oct-10 09:29N 35°40' E 140°00'0 0.0
2014-Oct-10 04:29N 35°40' E 140°00'0 0.0
2014-Oct-10 03:29N 35°40' E 140°00'0 0.0
2014-Oct-10 01:32N 35°40' E 140°00'0 0.0
2014-Oct-09 19:14N 35°40' E 140°00'0 0.0
2014-Oct-09 18:32N 35°40' E 140°00'0 0.0
2014-Oct-09 17:32N 35°40' E 140°00'0 0.0
2014-Oct-09 16:26N 35°40' E 140°00'0 0.0
2014-Oct-08 21:11N 35°40' E 140°00'0 0.0
2014-Oct-08 19:29N 35°40' E 140°00'0 0.0
2014-Oct-08 15:11N 35°40' E 139°60'0 0.1
2014-Oct-08 14:29N 35°40' E 140°00'0 0.0
2014-Oct-08 12:17N 35°40' E 140°00'0 0.0
2014-Oct-07 21:17N 35°40' E 140°00'0 0.0
2014-Oct-07 18:05N 35°40' E 140°00'0 0.0
2014-Oct-07 17:32N 35°40' E 140°00'0 0.0
2014-Oct-07 01:11N 35°40' E 140°00'0 0.1
2014-Oct-06 23:04N 35°40' E 139°60'5 0.2
2014-Oct-06 00:29N 35°35' E 139°60'  

Dump ship's entire track history